Time;durP1;ratioP1;P1;durP2;ratioP2;P2;SDS_P1;SDS_P2;PMS_P1;PMS_P2;Temp;Humidity;BMP_temperature;BMP_pressure;BME280_temperature;BME280_humidity;BME280_pressure;Samples;Min_cycle;Max_cycle;Signal;HPM_P1;HPM_P2
2023/06/12 00:01:14;;;;;;;30.97;21.13;;;;;;;18.75;100.00;32671.75;6243835;23;20592;-57
2023/06/12 00:03:44;;;;;;;25.93;19.00;;;;;;;18.73;100.00;31363.38;6243988;23;20659;-58
2023/06/12 00:06:11;;;;;;;32.53;22.20;;;;;;;18.68;100.00;31687.63;6243486;23;20291;-57
2023/06/12 00:08:42;;;;;;;30.77;20.60;;;;;;;18.67;100.00;28420.28;6243617;23;20263;-57
2023/06/12 00:11:12;;;;;;;30.13;21.43;;;;;;;18.78;100.00;28099.41;6243605;23;20161;-57
2023/06/12 00:13:40;;;;;;;32.47;21.67;;;;;;;18.83;100.00;28101.72;6243604;23;20161;-57
2023/06/12 00:16:07;;;;;;;33.13;20.37;;;;;;;18.74;100.00;26138.72;6244018;23;20592;-57
2023/06/12 00:18:35;;;;;;;18.50;16.50;;;;;;;18.62;100.00;26459.72;6243558;23;20157;-56
2023/06/12 00:21:03;;;;;;;11.60;10.67;;;;;;;18.77;100.00;23530.66;6243902;23;20631;-57
2023/06/12 00:23:30;;;;;;;21.40;13.60;;;;;;;18.82;100.00;23858.94;6243552;23;20157;-56
2023/06/12 00:25:58;;;;;;;21.83;14.40;;;;;;;18.93;100.00;24190.00;6217486;23;20558;-57
2023/06/12 00:28:25;;;;;;;30.00;16.27;;;;;;;18.90;100.00;24841.09;6243747;23;20157;-56
2023/06/12 00:30:51;;;;;;;16.10;14.40;;;;;;;18.94;100.00;23538.06;6243511;23;20239;-57
2023/06/12 00:33:18;;;;;;;22.07;14.83;;;;;;;18.93;100.00;22559.34;6243921;23;20157;-57
2023/06/12 00:35:46;;;;;;;21.23;14.80;;;;;;;18.95;100.00;20604.59;6243536;23;20161;-56
2023/06/12 00:38:15;;;;;;;20.23;12.57;;;;;;;18.95;100.00;15394.56;6243984;23;20650;-57
2023/06/12 00:40:42;;;;;;;9.53;8.57;;;;;;;18.98;100.00;7920.34;6243825;23;20157;-55
2023/06/12 00:43:09;;;;;;;7.03;6.43;;;;;;;19.19;100.00;4353.91;6191695;23;1214715;-57
2023/06/12 00:45:36;;;;;;;6.40;5.93;;;;;;;19.29;100.00;7926.03;6245540;23;20598;-57
2023/06/12 00:48:05;;;;;;;6.40;5.90;;;;;;;19.31;100.00;12476.91;6245383;23;20177;-56
2023/06/12 00:50:34;;;;;;;7.00;5.73;;;;;;;19.44;100.00;14758.34;6245010;23;20666;-57
2023/06/12 00:53:01;;;;;;;6.07;5.67;;;;;;;19.30;100.00;18988.16;6245328;23;20161;-57
2023/06/12 00:55:31;;;;;;;6.60;6.10;;;;;;;19.60;100.00;20955.94;6245391;23;20610;-57
2023/06/12 00:57:59;;;;;;;5.77;5.37;;;;;;;19.68;100.00;24223.38;6244528;23;20161;-57
2023/06/12 01:00:27;;;;;;;6.30;5.80;;;;;;;19.73;100.00;29782.72;6245016;23;20218;-56
2023/06/12 01:02:56;;;;;;;6.50;5.90;;;;;;;19.70;100.00;33382.09;6245593;23;20465;-57
2023/06/12 01:05:32;;;;;;;6.10;5.57;;;;;;;19.71;100.00;36987.03;6245339;23;20164;-56
2023/06/12 01:08:15;;;;;;;5.70;5.27;;;;;;;19.90;100.00;42908.53;6245360;23;20184;-57
2023/06/12 01:10:47;;;;;;;6.20;5.70;;;;;;;19.93;100.00;45539.97;6244843;23;20161;-57
2023/06/12 01:13:16;;;;;;;5.13;4.77;;;;;;;20.02;100.00;54108.63;6245223;23;20179;-56
2023/06/12 01:15:43;;;;;;;6.17;5.30;;;;;;;20.13;100.00;62042.50;6219022;23;20161;-57
2023/06/12 01:18:10;;;;;;;8.33;5.93;;;;;;;20.27;100.00;68344.22;6245080;23;20159;-57
2023/06/12 01:20:37;;;;;;;7.40;6.70;;;;;;;20.31;100.00;67686.50;6244934;23;20163;-57
2023/06/12 01:23:11;;;;;;;9.80;6.80;;;;;;;20.35;100.00;72663.34;6244609;23;20243;-57
2023/06/12 01:26:11;;;;;;;6.07;5.57;;;;;;;20.28;100.00;81952.56;6245011;23;20191;-57
2023/06/12 01:29:13;;;;;;;7.07;6.43;;;;;;;20.30;100.00;83618.53;6237104;23;20173;-58
2023/06/12 01:31:56;;;;;;;16.47;7.27;;;;;;;20.32;100.00;78634.16;6245117;23;20162;-56
2023/06/12 01:34:28;;;;;;;8.23;7.00;;;;;;;20.24;100.00;74971.19;6244891;23;20203;-57
2023/06/12 01:37:05;;;;;;;7.70;6.88;;;;;;;20.24;100.00;72980.69;6244979;23;20207;-58
2023/06/12 01:39:36;;;;;;;8.70;6.17;;;;;;;20.24;100.00;68341.28;6244540;23;20157;-56
2023/06/12 01:42:07;;;;;;;7.70;7.00;;;;;;;20.28;100.00;71327.72;6244508;23;20156;-57
2023/06/12 01:44:34;;;;;;;6.83;6.37;;;;;;;20.18;100.00;71647.00;6244445;23;20201;-57
2023/06/12 01:47:03;;;;;;;11.03;6.10;;;;;;;20.21;100.00;75631.69;6244850;23;20176;-57
2023/06/12 01:49:30;;;;;;;7.70;7.00;;;;;;;20.22;100.00;73973.91;6244517;23;20168;-58
2023/06/12 01:51:56;;;;;;;7.07;6.37;;;;;;;20.19;100.00;70322.50;6244599;23;20157;-58
2023/06/12 01:54:24;;;;;;;6.80;6.30;;;;;;;20.16;100.00;70650.84;6244919;23;20180;-57
2023/06/12 01:56:51;;;;;;;8.90;6.43;;;;;;;20.20;100.00;71318.56;6244578;23;20160;-56
2023/06/12 01:59:18;;;;;;;8.23;6.07;;;;;;;20.19;100.00;74965.44;6244860;23;20160;-57
2023/06/12 02:01:45;;;;;;;5.73;5.33;;;;;;;20.05;100.00;86246.06;6244833;23;20468;-56
2023/06/12 02:04:14;;;;;;;5.47;5.07;;;;;;;20.05;100.00;98248.16;6217962;23;20168;-57
2023/06/12 02:06:41;;;;;;;5.20;4.70;;;;;;;20.00;100.00;106934.63;6244822;23;20507;-57
2023/06/12 02:09:08;;;;;;;6.57;4.17;;;;;;;19.89;100.00;127392.34;6244598;23;20160;-57
2023/06/12 02:11:35;;;;;;;4.27;4.00;;;;;;;19.84;100.00;133784.00;6244181;23;20157;-57
2023/06/12 02:14:02;;;;;;;4.43;4.13;;;;;;;19.82;100.00;137492.47;6244616;23;20156;-57
2023/06/12 02:16:30;;;;;;;4.40;4.00;;;;;;;19.79;100.00;138713.63;6244629;23;20164;-56
2023/06/12 02:18:57;;;;;;;4.10;3.80;;;;;;;19.65;100.00;136439.50;6244316;23;20157;-57
2023/06/12 02:21:25;;;;;;;3.83;3.63;;;;;;;19.74;100.00;137135.19;6244559;23;20516;-58
2023/06/12 02:23:52;;;;;;;5.17;3.47;;;;;;;19.81;100.00;142414.13;6244132;23;20161;-56
2023/06/12 02:26:18;;;;;;;4.47;4.07;;;;;;;19.67;100.00;135769.28;6244133;23;20157;-57
2023/06/12 02:28:48;;;;;;;4.13;3.93;;;;;;;19.76;100.00;128374.41;6244077;23;20157;-56
2023/06/12 02:31:15;;;;;;;5.33;4.97;;;;;;;19.70;100.00;113913.75;6244486;23;20179;-57
2023/06/12 02:33:42;;;;;;;11.23;5.13;;;;;;;19.71;100.00;108889.66;6244471;23;20157;-57
2023/06/12 02:36:09;;;;;;;7.47;4.47;;;;;;;19.71;100.00;103202.25;6244452;23;20164;-58
2023/06/12 02:38:37;;;;;;;5.67;5.17;;;;;;;19.64;100.00;93177.94;6244440;23;20588;-58
2023/06/12 02:41:04;;;;;;;8.00;5.40;;;;;;;19.65;100.00;93178.75;6244530;23;20208;-57
2023/06/12 02:43:31;;;;;;;4.83;4.53;;;;;;;19.50;100.00;86166.28;6244103;23;20207;-57
2023/06/12 02:45:58;;;;;;;6.23;5.50;;;;;;;19.64;100.00;83193.84;6244053;23;20163;-57
2023/06/12 02:48:25;;;;;;;6.30;5.37;;;;;;;19.67;100.00;83530.44;6244422;23;20685;-56
2023/06/12 02:50:51;;;;;;;4.83;4.63;;;;;;;19.61;100.00;80200.13;6244023;23;20179;-56
2023/06/12 02:53:18;;;;;;;5.73;5.27;;;;;;;19.61;100.00;82858.00;6243987;23;20167;-57
2023/06/12 02:55:47;;;;;;;5.50;5.10;;;;;;;19.71;100.00;83203.72;6244290;23;20161;-57
2023/06/12 02:58:15;;;;;;;4.87;4.53;;;;;;;19.77;100.00;84873.88;6244022;23;20153;-57
2023/06/12 03:00:42;;;;;;;5.33;4.97;;;;;;;19.65;100.00;84856.56;6244305;23;20600;-56
2023/06/12 03:03:09;;;;;;;6.33;4.63;;;;;;;19.73;100.00;85533.22;6244309;23;20630;-57
2023/06/12 03:05:36;;;;;;;4.50;4.30;;;;;;;19.82;100.00;84549.22;6244714;23;20478;-56
2023/06/12 03:08:03;;;;;;;5.47;4.43;;;;;;;19.85;100.00;85218.75;6243780;23;20181;-57
2023/06/12 03:10:30;;;;;;;5.07;4.63;;;;;;;19.79;100.00;94868.06;6244284;23;20584;-56
2023/06/12 03:12:58;;;;;;;5.80;4.63;;;;;;;19.82;100.00;97876.88;6244265;23;20157;-56
2023/06/12 03:15:26;;;;;;;4.30;4.00;;;;;;;19.87;100.00;102896.69;6244274;23;20169;-57
2023/06/12 03:17:53;;;;;;;4.80;4.60;;;;;;;19.85;100.00;109585.34;6243784;23;20211;-56
2023/06/12 03:20:20;;;;;;;8.50;4.33;;;;;;;19.86;100.00;110927.34;6244684;23;20163;-57
2023/06/12 03:22:47;;;;;;;5.13;3.93;;;;;;;19.84;100.00;106904.78;6246424;23;20157;-56
2023/06/12 03:25:18;;;;;;;4.93;4.33;;;;;;;19.94;100.00;117651.72;6246176;23;20164;-57
2023/06/12 03:27:47;;;;;;;4.40;4.00;;;;;;;20.07;100.00;120029.38;6245605;23;20177;-57
2023/06/12 03:30:16;;;;;;;5.50;4.18;;;;;;;20.18;100.00;131162.03;6245880;23;20161;-57
2023/06/12 03:32:43;;;;;;;4.30;3.83;;;;;;;20.16;100.00;137907.97;6245764;23;20164;-57
2023/06/12 03:35:10;;;;;;;5.43;4.23;;;;;;;20.23;100.00;136573.00;6245714;23;20157;-56
2023/06/12 03:37:37;;;;;;;7.70;4.67;;;;;;;20.26;100.00;132190.53;6245887;23;20159;-58
2023/06/12 03:40:05;;;;;;;6.50;6.10;;;;;;;20.29;100.00;120745.38;6245782;23;20156;-56
2023/06/12 03:42:32;;;;;;;7.07;6.47;;;;;;;20.15;100.00;113999.44;6245797;23;20669;-57
2023/06/12 03:45:00;;;;;;;6.97;6.50;;;;;;;20.23;100.00;108315.25;6245698;23;20173;-57
2023/06/12 03:47:28;;;;;;;7.43;6.80;;;;;;;20.17;100.00;96931.34;6245635;23;20181;-56
2023/06/12 03:49:55;;;;;;;8.60;7.90;;;;;;;19.96;100.00;88229.44;6245570;23;20161;-56
2023/06/12 03:52:22;;;;;;;7.47;7.17;;;;;;;19.75;100.00;67622.22;6246077;23;20167;-56
2023/06/12 03:54:50;;;;;;;9.47;8.67;;;;;;;19.67;100.00;59352.22;6245509;23;20200;-57
2023/06/12 03:57:17;;;;;;;8.50;8.10;;;;;;;19.72;100.00;54081.03;6245959;23;20153;-56
2023/06/12 03:59:43;;;;;;;9.13;8.40;;;;;;;19.71;100.00;47166.41;6245611;23;20161;-57
2023/06/12 04:02:10;;;;;;;8.47;8.17;;;;;;;19.75;100.00;45196.94;6246070;23;20179;-57
2023/06/12 04:04:39;;;;;;;8.77;8.47;;;;;;;19.69;100.00;44534.97;6245717;23;20175;-56
2023/06/12 04:07:06;;;;;;;9.37;8.73;;;;;;;19.80;100.00;41258.56;6245329;23;20192;-56
2023/06/12 04:09:33;;;;;;;8.67;8.10;;;;;;;19.74;100.00;41254.22;6245675;23;20596;-56
2023/06/12 04:12:00;;;;;;;9.73;8.80;;;;;;;19.82;100.00;40931.69;6219072;23;20161;-56
2023/06/12 04:14:27;;;;;;;10.40;9.37;;;;;;;19.92;100.00;39954.28;6245775;23;20157;-57
2023/06/12 04:16:53;;;;;;;9.73;9.13;;;;;;;19.94;100.00;38970.66;6245618;23;20156;-57
2023/06/12 04:19:21;;;;;;;10.27;9.77;;;;;;;19.89;100.00;35687.22;6245712;23;20161;-56
2023/06/12 04:21:51;;;;;;;9.87;9.40;;;;;;;19.93;100.00;36017.63;6245546;23;20161;-57
2023/06/12 04:24:19;;;;;;;10.20;9.30;;;;;;;20.08;100.00;37339.38;6245641;23;20473;-56
2023/06/12 04:26:48;;;;;;;9.80;9.40;;;;;;;19.97;100.00;38644.53;6245506;23;20548;-57
2023/06/12 04:29:16;;;;;;;10.13;9.57;;;;;;;20.07;100.00;37010.66;6245082;23;20231;-57
2023/06/12 04:31:43;;;;;;;12.07;11.10;;;;;;;20.01;100.00;37334.75;6245571;23;20488;-58
2023/06/12 04:34:13;;;;;;;11.27;10.77;;;;;;;20.06;100.00;35370.09;6245525;23;20157;-57
2023/06/12 04:36:40;;;;;;;13.13;12.23;;;;;;;20.26;100.00;37350.97;6245958;23;20165;-57
2023/06/12 04:39:11;;;;;;;12.30;11.00;;;;;;;20.48;100.00;40650.63;6245765;23;20232;-57
2023/06/12 04:41:38;;;;;;;12.48;11.52;;;;;;;20.58;100.00;44274.53;6219221;23;20163;-56
2023/06/12 04:44:06;;;;;;;12.83;11.93;;;;;;;20.62;100.00;47899.63;6245028;23;20279;-56
2023/06/12 04:46:33;;;;;;;13.27;12.30;;;;;;;20.66;100.00;49550.56;6245145;23;20199;-57
2023/06/12 04:49:00;;;;;;;12.30;11.40;;;;;;;20.68;100.00;53509.41;6244840;23;20268;-57
2023/06/12 04:51:27;;;;;;;11.93;10.68;;;;;;;20.72;100.00;56485.03;6245421;23;20615;-56
2023/06/12 04:53:55;;;;;;;11.53;10.83;;;;;;;20.79;100.00;59465.75;6245006;23;20199;-56
2023/06/12 04:56:23;;;;;;;15.23;9.97;;;;;;;20.86;100.00;64105.41;6244962;23;20161;-57
2023/06/12 04:58:51;;;;;;;11.30;10.17;;;;;;;20.96;100.00;69751.56;6245482;23;20157;-56
2023/06/12 05:01:21;;;;;;;11.27;10.13;;;;;;;20.95;100.00;75725.88;6245386;23;20215;-57
2023/06/12 05:03:49;;;;;;;10.73;9.90;;;;;;;20.93;100.00;79380.34;6245193;23;20648;-57
2023/06/12 05:06:16;;;;;;;10.98;10.13;;;;;;;21.02;100.00;82721.00;6245405;23;20631;-57
2023/06/12 05:08:43;;;;;;;11.20;10.60;;;;;;;21.21;100.00;84747.00;6244729;23;20275;-56
2023/06/12 05:11:10;;;;;;;11.75;10.85;;;;;;;21.31;100.00;93439.66;6244794;23;20171;-56
2023/06/12 05:13:39;;;;;;;11.13;10.30;;;;;;;21.43;100.00;99815.50;6245205;23;20596;-56
2023/06/12 05:16:06;;;;;;;19.75;10.98;;;;;;;21.41;100.00;105508.66;6245071;23;20540;-57
2023/06/12 05:18:32;;;;;;;16.38;11.18;;;;;;;21.46;100.00;108201.22;6244638;23;20153;-56
2023/06/12 05:21:00;;;;;;;15.07;10.52;;;;;;;21.58;100.00;113936.72;6244625;23;20157;-57
2023/06/12 05:23:27;;;;;;;11.13;10.35;;;;;;;21.56;100.00;124709.97;6244994;23;20271;-56
2023/06/12 05:25:54;;;;;;;9.55;8.82;;;;;;;21.26;100.00;137484.72;6244956;23;20200;-57
2023/06/12 05:28:21;;;;;;;19.55;9.63;;;;;;;21.50;100.00;139741.72;6245000;23;20216;-58
2023/06/12 05:30:49;;;;;;;12.32;11.50;;;;;;;21.74;100.00;149527.44;6245394;23;20153;-58
2023/06/12 05:33:16;;;;;;;10.70;10.20;;;;;;;21.73;100.00;151500.47;6244630;23;20161;-59
2023/06/12 05:35:44;;;;;;;8.52;8.00;;;;;;;21.80;100.00;151519.63;6244542;23;20180;-57
2023/06/12 05:38:11;;;;;;;12.32;7.55;;;;;;;21.95;100.00;151555.34;6244159;23;20165;-56
2023/06/12 05:40:38;;;;;;;9.00;8.55;;;;;;;22.03;100.00;151577.00;6244139;23;20268;-57
2023/06/12 05:43:05;;;;;;;7.45;7.15;;;;;;;21.91;100.00;151546.38;6244413;23;20698;-56
2023/06/12 05:45:32;;;;;;;11.45;7.40;;;;;;;21.98;100.00;151564.25;6245080;23;20236;-62
2023/06/12 05:48:00;;;;;;;10.38;9.57;;;;;;;21.86;100.00;151534.91;6217723;23;20197;-57
2023/06/12 05:50:27;;;;;;;7.38;6.93;;;;;;;22.15;100.00;151607.59;6246158;23;20565;-63
2023/06/12 05:52:54;;;;;;;10.35;7.70;;;;;;;21.91;100.00;151546.38;6246889;23;20157;-62
2023/06/12 05:55:21;;;;;;;13.00;7.70;;;;;;;21.92;100.00;151547.66;6245751;23;20195;-61
2023/06/12 05:57:48;;;;;;;8.63;8.02;;;;;;;21.98;100.00;151564.25;6246169;23;20549;-61
2023/06/12 06:00:17;;;;;;;8.40;7.63;;;;;;;22.09;100.00;151592.34;6245729;23;20161;-61
2023/06/12 06:02:45;;;;;;;9.57;8.65;;;;;;;22.01;100.00;151570.66;6244767;23;20161;-61
2023/06/12 06:05:13;;;;;;;14.98;8.55;;;;;;;21.96;100.00;151559.19;6245234;23;20520;-63
2023/06/12 06:07:40;;;;;;;10.68;8.65;;;;;;;21.99;100.00;151565.53;6245278;23;20571;-62
2023/06/12 06:10:08;;;;;;;10.10;8.52;;;;;;;21.90;100.00;151542.59;6244828;23;20551;-62
2023/06/12 06:12:36;;;;;;;8.75;7.97;;;;;;;21.75;100.00;151506.88;6245176;23;20670;-61
2023/06/12 06:15:03;;;;;;;9.45;7.60;;;;;;;21.89;100.00;151541.31;6244945;23;20165;-61
2023/06/12 06:17:30;;;;;;;10.73;7.78;;;;;;;21.83;100.00;151527.25;6245107;23;20612;-60
2023/06/12 06:19:57;;;;;;;8.00;6.88;;;;;;;21.57;100.00;151460.97;6244644;23;20157;-61
2023/06/12 06:22:26;;;;;;;8.07;7.43;;;;;;;21.65;100.00;151481.38;6244452;23;20596;-62
2023/06/12 06:24:57;;;;;;;8.88;7.80;;;;;;;21.72;100.00;151497.97;6244214;23;20183;-60
2023/06/12 06:27:24;;;;;;;23.27;19.98;;;;;;;21.68;100.00;151487.75;6244536;23;20492;-61
2023/06/12 06:29:51;;;;;;;27.13;20.65;;;;;;;21.92;100.00;151549.00;6245061;23;20530;-64
2023/06/12 06:32:18;;;;;;;14.93;13.45;;;;;;;22.18;100.00;151615.28;6244913;23;20236;-63
2023/06/12 06:34:45;;;;;;;17.77;14.68;;;;;;;22.40;100.00;151668.84;6244435;23;20230;-61
2023/06/12 06:37:12;;;;;;;8.57;7.80;;;;;;;22.25;100.00;151631.84;6244209;23;20164;-61
2023/06/12 06:39:41;;;;;;;10.93;7.63;;;;;;;22.28;100.00;151640.75;6244303;23;20164;-62
2023/06/12 06:42:08;;;;;;;14.60;8.43;;;;;;;22.45;100.00;151682.84;6245750;23;20619;-61
2023/06/12 06:44:35;;;;;;;16.67;8.70;;;;;;;22.49;100.00;151691.81;6244775;23;20200;-61
2023/06/12 06:47:09;;;;;;;13.85;8.63;;;;;;;22.66;100.00;151735.16;6244752;23;20473;-64
2023/06/12 06:49:37;;;;;;;10.32;9.43;;;;;;;22.03;100.00;151575.75;6243585;23;20226;-61
2023/06/12 06:52:09;;;;;;;9.85;9.10;;;;;;;22.37;100.00;151662.44;6244716;23;20164;-61
2023/06/12 06:54:37;;;;;;;10.50;8.88;;;;;;;22.35;100.00;151656.09;6243828;23;20161;-62
2023/06/12 06:57:06;;;;;;;15.23;11.15;;;;;;;22.64;100.00;151730.06;6243670;23;20194;-61
2023/06/12 06:59:33;;;;;;;10.00;8.93;;;;;;;22.86;100.00;151784.94;6244677;23;20662;-61
2023/06/12 07:02:00;;;;;;;11.82;9.18;;;;;;;23.01;100.00;151824.47;6245019;23;20461;-61
2023/06/12 07:04:26;;;;;;;9.57;9.10;;;;;;;23.14;100.00;151857.66;6244012;23;20177;-61
2023/06/12 07:06:57;;;;;;;9.98;9.30;;;;;;;23.27;100.00;151889.56;6245712;23;20160;-62
2023/06/12 07:09:25;;;;;;;8.55;7.72;;;;;;;22.26;100.00;151634.41;6244258;23;20541;-62
2023/06/12 07:11:52;;;;;;;8.75;8.25;;;;;;;22.75;100.00;151759.41;6219212;23;20173;-63
2023/06/12 07:14:21;;;;;;;11.15;8.80;;;;;;;22.16;100.00;151608.88;6245460;23;20161;-60
2023/06/12 07:16:48;;;;;;;8.25;7.85;;;;;;;22.06;100.00;151584.69;6245158;23;20157;-61
2023/06/12 07:19:15;;;;;;;9.35;8.68;;;;;;;22.30;100.00;151645.88;6245241;23;20167;-62
2023/06/12 07:21:42;;;;;;;7.90;7.32;;;;;;;22.32;100.00;151650.97;6244476;23;20239;-62
2023/06/12 07:24:09;;;;;;;7.53;7.15;;;;;;;22.70;100.00;151746.66;6245457;23;20614;-60
2023/06/12 07:26:36;;;;;;;8.50;7.63;;;;;;;22.85;100.00;151782.38;6245580;23;20197;-61
2023/06/12 07:29:03;;;;;;;11.25;7.60;;;;;;;23.07;100.00;151838.53;6245302;23;20187;-62
2023/06/12 07:31:31;;;;;;;8.10;7.45;;;;;;;22.68;100.00;151740.25;6244644;23;20160;-61
2023/06/12 07:33:58;;;;;;;9.05;5.90;;;;;;;22.67;100.00;151737.69;6244743;23;20164;-62
2023/06/12 07:36:25;;;;;;;7.53;6.60;;;;;;;22.80;100.00;151770.91;6243816;23;20237;-64
2023/06/12 07:38:52;;;;;;;6.50;5.82;;;;;;;22.79;100.00;151768.34;6243582;23;20236;-63
2023/06/12 07:41:20;;;;;;;7.30;6.78;;;;;;;22.99;100.00;151819.41;6243479;23;20240;-63
2023/06/12 07:43:47;;;;;;;9.32;6.35;;;;;;;23.10;100.00;151847.44;6243665;23;20650;-62
2023/06/12 07:46:15;;;;;;;7.75;7.00;;;;;;;22.95;100.00;151809.19;6243395;23;20227;-62
2023/06/12 07:48:43;;;;;;;16.13;6.95;;;;;;;23.27;100.00;151888.28;6243828;23;20640;-63
2023/06/12 07:51:12;;;;;;;9.10;6.93;;;;;;;23.29;100.00;151893.41;6216980;23;20507;-62
2023/06/12 07:53:39;;;;;;;8.02;7.38;;;;;;;23.61;100.00;151975.09;6243790;23;20153;-63
2023/06/12 07:56:07;;;;;;;7.82;7.28;;;;;;;23.50;100.00;151947.03;6243159;23;20240;-63
2023/06/12 07:58:37;;;;;;;7.43;6.68;;;;;;;23.20;100.00;151873.00;6243669;23;20157;-62
2023/06/12 08:01:04;;;;;;;7.78;7.28;;;;;;;22.09;100.00;151592.34;6242780;23;20165;-62
2023/06/12 08:03:31;;;;;;;8.73;7.95;;;;;;;22.05;100.00;151582.13;6243386;23;20245;-63
2023/06/12 08:06:00;;;;;;;7.68;7.35;;;;;;;22.36;100.00;151659.94;6244058;23;20169;-63
2023/06/12 08:08:27;;;;;;;9.77;7.82;;;;;;;22.72;100.00;151750.50;6245182;23;20185;-63
2023/06/12 08:10:54;;;;;;;8.18;7.70;;;;;;;22.85;100.00;151782.38;6245446;23;20208;-63
2023/06/12 08:13:21;;;;;;;7.82;7.25;;;;;;;22.86;100.00;151786.22;6247857;23;20160;-62
2023/06/12 08:15:47;;;;;;;8.93;7.85;;;;;;;22.56;100.00;151709.66;6245748;23;20526;-63
2023/06/12 08:18:14;;;;;;;8.85;8.35;;;;;;;21.61;100.00;151469.88;6246451;23;20163;-62
2023/06/12 08:20:41;;;;;;;9.60;8.80;;;;;;;21.88;100.00;151538.75;6245298;23;20206;-65
2023/06/12 08:23:22;;;;;;;15.82;10.27;;;;;;;22.10;100.00;151594.91;6246355;23;20237;-62
2023/06/12 08:25:49;;;;;;;9.70;8.90;;;;;;;22.02;100.00;151574.50;6216610;23;20176;-65
2023/06/12 08:28:16;;;;;;;9.40;8.65;;;;;;;22.20;100.00;151620.38;6246264;23;20251;-62
2023/06/12 08:30:43;;;;;;;11.23;7.65;;;;;;;22.66;100.00;151736.41;6249801;23;20159;-64
2023/06/12 08:33:11;;;;;;;8.35;7.78;;;;;;;23.13;100.00;151855.09;6248479;23;20223;-62
2023/06/12 08:35:38;;;;;;;8.10;7.38;;;;;;;23.47;100.00;151939.34;6248133;23;20165;-63
2023/06/12 08:38:05;;;;;;;8.82;8.10;;;;;;;23.60;100.00;151973.81;6247378;23;20161;-62
2023/06/12 08:40:34;;;;;;;8.13;7.68;;;;;;;23.49;100.00;151944.47;6249147;23;20179;-62
2023/06/12 08:43:00;;;;;;;8.60;8.07;;;;;;;23.66;100.00;151989.16;6249287;23;20205;-63
2023/06/12 08:45:28;;;;;;;8.48;8.15;;;;;;;23.77;100.00;152014.66;6250360;23;20232;-63
2023/06/12 08:47:58;;;;;;;8.55;7.75;;;;;;;23.62;100.00;151977.66;6250845;23;20168;-64
2023/06/12 08:50:26;;;;;;;9.13;8.20;;;;;;;24.04;100.00;152084.88;6249558;23;20181;-63
2023/06/12 08:52:54;;;;;;;8.68;8.07;;;;;;;24.28;100.00;152144.91;6249415;23;20190;-62
2023/06/12 08:55:22;;;;;;;8.68;8.10;;;;;;;24.51;100.00;152202.41;6251817;23;20160;-63
2023/06/12 08:57:54;;;;;;;8.68;7.97;;;;;;;24.55;100.00;152213.91;6248610;23;20157;-63
2023/06/12 09:00:49;;;;;;;9.50;8.75;;;;;;;24.46;100.00;152190.91;6249475;23;20571;-67
2023/06/12 09:03:17;;;;;;;9.05;8.30;;;;;;;24.55;100.00;152212.59;6238964;23;20172;-62
2023/06/12 09:05:45;;;;;;;10.00;9.13;;;;;;;24.13;100.00;152107.88;6248624;23;20173;-63
2023/06/12 09:08:11;;;;;;;9.05;8.07;;;;;;;24.30;100.00;152148.75;6247980;23;20165;-62
2023/06/12 09:10:39;;;;;;;9.45;8.82;;;;;;;24.62;100.00;152230.47;6246436;23;20248;-64
2023/06/12 09:13:09;;;;;;;10.98;7.20;;;;;;;24.83;100.00;152282.84;6245157;23;20157;-62
2023/06/12 09:15:37;;;;;;;7.45;6.95;;;;;;;24.67;100.00;152243.25;6245196;23;20235;-63
2023/06/12 09:18:12;;;;;;;9.07;7.35;;;;;;;24.31;100.00;152151.34;6245344;23;20459;-62
2023/06/12 09:20:39;;;;;;;8.07;7.55;;;;;;;23.78;100.00;152018.50;6245213;23;20160;-63
2023/06/12 09:23:06;;;;;;;14.77;8.05;;;;;;;23.85;100.00;152036.34;6245395;23;20677;-63
2023/06/12 09:25:39;;;;;;;8.25;7.75;;;;;;;23.50;100.00;151947.03;6244505;23;20248;-62
2023/06/12 09:28:09;;;;;;;8.77;7.95;;;;;;;23.64;100.00;151982.75;6219096;23;20153;-62
2023/06/12 09:30:39;;;;;;;9.77;8.30;;;;;;;23.87;100.00;152041.47;6244467;23;20184;-63
2023/06/12 09:33:07;;;;;;;9.57;9.00;;;;;;;24.19;100.00;152120.69;6244485;23;20240;-63
2023/06/12 09:35:49;;;;;;;12.80;8.80;;;;;;;23.94;100.00;152059.34;6245137;23;20546;-62
2023/06/12 09:38:19;;;;;;;11.25;9.25;;;;;;;24.02;100.00;152078.47;6245731;23;20156;-57
2023/06/12 09:40:56;;;;;;;9.40;8.68;;;;;;;24.36;100.00;152164.06;6244377;23;20256;-58
2023/06/12 09:43:25;;;;;;;8.80;8.20;;;;;;;24.47;100.00;152192.19;6244953;23;20200;-58
2023/06/12 09:45:52;;;;;;;8.45;7.85;;;;;;;24.82;100.00;152281.59;6244604;23;20227;-60
2023/06/12 09:48:19;;;;;;;8.98;8.48;;;;;;;24.14;100.00;152110.38;6244204;23;20157;-60
2023/06/12 09:50:46;;;;;;;8.65;7.57;;;;;;;25.23;100.00;152385.09;6244496;23;20177;-60
2023/06/12 09:53:16;;;;;;;8.52;7.80;;;;;;;26.45;100.00;152691.94;6244409;23;20161;-59
2023/06/12 09:55:45;;;;;;;8.07;7.45;;;;;;;26.98;100.00;152826.28;6244318;23;20175;-60
2023/06/12 09:58:14;;;;;;;7.70;7.30;;;;;;;27.40;100.00;152933.75;6244815;23;20611;-60
2023/06/12 10:00:43;;;;;;;7.15;6.68;;;;;;;27.15;100.00;152871.06;6243870;23;20189;-58
2023/06/12 10:03:14;;;;;;;8.15;7.43;;;;;;;27.18;100.00;152877.44;6244802;23;20164;-59
2023/06/12 10:05:44;;;;;;;11.90;7.47;;;;;;;27.26;100.00;152897.91;6245062;23;20169;-58
2023/06/12 10:08:11;;;;;;;9.90;8.05;;;;;;;27.23;100.00;152891.53;6218592;23;20235;-59
2023/06/12 10:10:40;;;;;;;7.30;6.70;;;;;;;27.01;100.00;152835.22;6243837;23;20194;-57
2023/06/12 10:13:09;;;;;;;9.20;8.07;;;;;;;26.59;100.00;152729.03;6244024;23;20188;-58
2023/06/12 10:15:38;;;;;;;14.73;8.25;;;;;;;25.93;100.00;152562.75;6217467;23;20168;-59
2023/06/12 10:18:08;;;;;;;8.18;7.82;;;;;;;25.41;100.00;152429.84;6244939;23;20180;-59
2023/06/12 10:20:36;;;;;;;8.70;7.97;;;;;;;25.48;100.00;152449.00;6244514;23;20244;-58
2023/06/12 10:23:04;;;;;;;9.75;8.90;;;;;;;25.29;100.00;152399.19;6245002;23;20164;-57
2023/06/12 10:25:32;;;;;;;9.13;8.63;;;;;;;25.32;100.00;152406.81;6244089;23;20160;-59
2023/06/12 10:28:00;;;;;;;10.93;10.32;;;;;;;25.39;100.00;152424.69;6244347;23;20168;-60
2023/06/12 10:30:27;;;;;;;10.57;8.43;;;;;;;25.11;100.00;152353.16;6217203;23;20203;-62
2023/06/12 10:32:55;;;;;;;10.18;9.20;;;;;;;24.69;100.00;152247.09;6243903;23;20160;-60
2023/06/12 10:35:41;;;;;;;10.35;9.02;;;;;;;24.81;100.00;152277.75;6243839;23;20180;-59
2023/06/12 10:38:12;;;;;;;7.93;7.55;;;;;;;25.12;100.00;152356.97;6244178;23;20156;-62
2023/06/12 10:40:43;;;;;;;10.52;8.02;;;;;;;25.39;100.00;152424.69;6243888;23;20240;-62
2023/06/12 10:43:12;;;;;;;8.57;7.95;;;;;;;25.21;100.00;152378.69;6244044;23;20204;-64
2023/06/12 10:45:40;;;;;;;16.20;14.95;;;;;;;24.67;100.00;152243.25;6244247;23;20163;-61
2023/06/12 10:48:17;;;;;;;8.75;7.88;;;;;;;24.22;100.00;152128.34;6243890;23;20259;-59
2023/06/12 10:50:48;;;;;;;8.75;8.00;;;;;;;24.48;100.00;152194.75;6243727;23;20227;-58
2023/06/12 10:53:18;;;;;;;7.95;7.22;;;;;;;24.71;100.00;152252.19;6243931;23;20161;-58
2023/06/12 10:55:47;;;;;;;8.43;7.47;;;;;;;24.94;100.00;152312.28;6243584;23;20202;-58
2023/06/12 10:58:18;;;;;;;7.57;7.03;;;;;;;25.14;100.00;152362.09;6244178;23;20157;-59
2023/06/12 11:00:51;;;;;;;7.65;6.97;;;;;;;25.38;100.00;152422.13;6243710;23;20259;-58
2023/06/12 11:03:25;;;;;;;10.13;7.45;;;;;;;25.49;100.00;152450.28;6243728;23;20157;-59
2023/06/12 11:05:55;;;;;;;7.88;7.22;;;;;;;25.75;100.00;152515.50;6244570;23;20180;-58
2023/06/12 11:08:23;;;;;;;24.05;10.48;;;;;;;25.11;100.00;152353.16;6244112;23;20157;-58
2023/06/12 11:10:50;;;;;;;17.63;6.43;;;;;;;25.36;100.00;152418.34;6244337;23;20349;-58
2023/06/12 11:13:17;;;;;;;11.55;7.07;;;;;;;25.08;100.00;152345.50;6244111;23;20594;-59
2023/06/12 11:15:45;;;;;;;17.77;8.00;;;;;;;24.41;100.00;152178.13;6243852;23;20157;-59
2023/06/12 11:18:13;;;;;;;7.47;6.97;;;;;;;24.26;100.00;152138.56;6244737;23;20679;-57
2023/06/12 11:20:40;;;;;;;7.20;6.70;;;;;;;24.65;100.00;152238.16;6244532;23;20634;-58
2023/06/12 11:23:08;;;;;;;6.65;6.03;;;;;;;24.83;100.00;152284.13;6243911;23;20157;-58